sensor_id;sensor_type;location;lat;lon;timestamp;P1;durP1;ratioP1;P2;durP2;ratioP2
68192;SDS011;55012;47.562;18.414;2023-04-25T00:02:11;10.65;;;6.47;;
68192;SDS011;55012;47.562;18.414;2023-04-25T00:04:37;8.65;;;6.20;;
68192;SDS011;55012;47.562;18.414;2023-04-25T00:07:03;9.45;;;6.10;;
68192;SDS011;55012;47.562;18.414;2023-04-25T00:09:28;9.90;;;5.65;;
68192;SDS011;55012;47.562;18.414;2023-04-25T00:11:54;8.48;;;5.28;;
68192;SDS011;55012;47.562;18.414;2023-04-25T00:14:20;7.72;;;4.95;;
68192;SDS011;55012;47.562;18.414;2023-04-25T00:16:45;8.77;;;5.03;;
68192;SDS011;55012;47.562;18.414;2023-04-25T00:19:11;6.78;;;4.63;;
68192;SDS011;55012;47.562;18.414;2023-04-25T00:21:37;8.15;;;5.15;;
68192;SDS011;55012;47.562;18.414;2023-04-25T00:24:05;7.40;;;5.18;;
68192;SDS011;55012;47.562;18.414;2023-04-25T00:26:31;7.40;;;4.93;;
68192;SDS011;55012;47.562;18.414;2023-04-25T00:28:58;7.03;;;4.65;;
68192;SDS011;55012;47.562;18.414;2023-04-25T00:31:24;6.70;;;4.72;;
68192;SDS011;55012;47.562;18.414;2023-04-25T00:33:49;6.18;;;4.47;;
68192;SDS011;55012;47.562;18.414;2023-04-25T00:36:15;7.03;;;4.70;;
68192;SDS011;55012;47.562;18.414;2023-04-25T00:38:40;7.25;;;4.70;;
68192;SDS011;55012;47.562;18.414;2023-04-25T00:41:07;6.50;;;4.68;;
68192;SDS011;55012;47.562;18.414;2023-04-25T00:43:32;8.45;;;5.50;;
68192;SDS011;55012;47.562;18.414;2023-04-25T00:45:59;7.72;;;4.90;;
68192;SDS011;55012;47.562;18.414;2023-04-25T00:48:25;7.95;;;4.50;;
68192;SDS011;55012;47.562;18.414;2023-04-25T00:50:52;6.15;;;4.18;;
68192;SDS011;55012;47.562;18.414;2023-04-25T00:53:19;7.43;;;4.30;;
68192;SDS011;55012;47.562;18.414;2023-04-25T00:55:49;7.63;;;4.10;;
68192;SDS011;55012;47.562;18.414;2023-04-25T00:58:16;8.15;;;4.32;;
68192;SDS011;55012;47.562;18.414;2023-04-25T01:00:42;6.47;;;4.18;;
68192;SDS011;55012;47.562;18.414;2023-04-25T01:03:09;6.45;;;4.10;;
68192;SDS011;55012;47.562;18.414;2023-04-25T01:05:35;6.18;;;4.10;;
68192;SDS011;55012;47.562;18.414;2023-04-25T01:08:00;6.32;;;3.97;;
68192;SDS011;55012;47.562;18.414;2023-04-25T01:10:26;7.28;;;4.00;;
68192;SDS011;55012;47.562;18.414;2023-04-25T01:12:52;7.80;;;4.40;;
68192;SDS011;55012;47.562;18.414;2023-04-25T01:15:17;5.72;;;3.65;;
68192;SDS011;55012;47.562;18.414;2023-04-25T01:17:43;5.57;;;4.10;;
68192;SDS011;55012;47.562;18.414;2023-04-25T01:20:09;6.40;;;3.72;;
68192;SDS011;55012;47.562;18.414;2023-04-25T01:22:36;5.60;;;3.80;;
68192;SDS011;55012;47.562;18.414;2023-04-25T01:25:01;5.03;;;3.45;;
68192;SDS011;55012;47.562;18.414;2023-04-25T01:27:27;6.53;;;3.60;;
68192;SDS011;55012;47.562;18.414;2023-04-25T01:29:53;5.00;;;3.53;;
68192;SDS011;55012;47.562;18.414;2023-04-25T01:32:19;6.60;;;3.75;;
68192;SDS011;55012;47.562;18.414;2023-04-25T01:34:46;5.68;;;3.70;;
68192;SDS011;55012;47.562;18.414;2023-04-25T01:37:12;5.57;;;3.60;;
68192;SDS011;55012;47.562;18.414;2023-04-25T01:39:37;6.65;;;3.45;;
68192;SDS011;55012;47.562;18.414;2023-04-25T01:42:03;6.45;;;3.75;;
68192;SDS011;55012;47.562;18.414;2023-04-25T01:44:29;4.97;;;3.53;;
68192;SDS011;55012;47.562;18.414;2023-04-25T01:46:54;7.78;;;3.95;;
68192;SDS011;55012;47.562;18.414;2023-04-25T01:49:20;5.78;;;3.70;;
68192;SDS011;55012;47.562;18.414;2023-04-25T01:51:45;4.80;;;3.38;;
68192;SDS011;55012;47.562;18.414;2023-04-25T01:54:11;5.72;;;3.70;;
68192;SDS011;55012;47.562;18.414;2023-04-25T01:56:38;6.00;;;3.78;;
68192;SDS011;55012;47.562;18.414;2023-04-25T01:59:05;5.70;;;3.78;;
68192;SDS011;55012;47.562;18.414;2023-04-25T02:01:30;5.50;;;3.58;;
68192;SDS011;55012;47.562;18.414;2023-04-25T02:03:56;6.15;;;3.50;;
68192;SDS011;55012;47.562;18.414;2023-04-25T02:06:21;6.15;;;4.13;;
68192;SDS011;55012;47.562;18.414;2023-04-25T02:08:47;6.80;;;4.03;;
68192;SDS011;55012;47.562;18.414;2023-04-25T02:11:12;5.75;;;4.18;;
68192;SDS011;55012;47.562;18.414;2023-04-25T02:13:38;6.57;;;4.10;;
68192;SDS011;55012;47.562;18.414;2023-04-25T02:16:04;7.85;;;4.03;;
68192;SDS011;55012;47.562;18.414;2023-04-25T02:18:29;6.30;;;4.00;;
68192;SDS011;55012;47.562;18.414;2023-04-25T02:20:56;5.88;;;3.88;;
68192;SDS011;55012;47.562;18.414;2023-04-25T02:23:22;5.60;;;3.38;;
68192;SDS011;55012;47.562;18.414;2023-04-25T02:25:48;4.97;;;3.63;;
68192;SDS011;55012;47.562;18.414;2023-04-25T02:28:14;5.45;;;3.47;;
68192;SDS011;55012;47.562;18.414;2023-04-25T02:30:39;5.18;;;3.50;;
68192;SDS011;55012;47.562;18.414;2023-04-25T02:33:04;6.82;;;3.58;;
68192;SDS011;55012;47.562;18.414;2023-04-25T02:35:30;6.32;;;3.50;;
68192;SDS011;55012;47.562;18.414;2023-04-25T02:37:55;6.15;;;3.40;;
68192;SDS011;55012;47.562;18.414;2023-04-25T02:40:21;5.30;;;3.40;;
68192;SDS011;55012;47.562;18.414;2023-04-25T02:42:47;5.22;;;3.40;;
68192;SDS011;55012;47.562;18.414;2023-04-25T02:45:12;5.10;;;3.30;;
68192;SDS011;55012;47.562;18.414;2023-04-25T02:47:38;5.78;;;3.30;;
68192;SDS011;55012;47.562;18.414;2023-04-25T02:50:03;6.72;;;3.30;;
68192;SDS011;55012;47.562;18.414;2023-04-25T02:52:29;5.43;;;3.10;;
68192;SDS011;55012;47.562;18.414;2023-04-25T02:54:55;4.40;;;3.00;;
68192;SDS011;55012;47.562;18.414;2023-04-25T02:57:20;4.15;;;2.75;;
68192;SDS011;55012;47.562;18.414;2023-04-25T02:59:46;4.38;;;3.00;;
68192;SDS011;55012;47.562;18.414;2023-04-25T03:02:11;5.50;;;2.85;;
68192;SDS011;55012;47.562;18.414;2023-04-25T03:04:37;5.00;;;3.10;;
68192;SDS011;55012;47.562;18.414;2023-04-25T03:07:02;4.97;;;2.65;;
68192;SDS011;55012;47.562;18.414;2023-04-25T03:09:28;4.90;;;2.95;;
68192;SDS011;55012;47.562;18.414;2023-04-25T03:11:53;5.88;;;3.40;;
68192;SDS011;55012;47.562;18.414;2023-04-25T03:14:19;5.50;;;3.03;;
68192;SDS011;55012;47.562;18.414;2023-04-25T03:16:44;7.38;;;3.70;;
68192;SDS011;55012;47.562;18.414;2023-04-25T03:19:10;10.23;;;3.55;;
68192;SDS011;55012;47.562;18.414;2023-04-25T03:21:35;7.15;;;3.88;;
68192;SDS011;55012;47.562;18.414;2023-04-25T03:24:02;4.63;;;3.03;;
68192;SDS011;55012;47.562;18.414;2023-04-25T03:26:28;6.80;;;3.33;;
68192;SDS011;55012;47.562;18.414;2023-04-25T03:28:54;5.70;;;3.45;;
68192;SDS011;55012;47.562;18.414;2023-04-25T03:31:19;4.78;;;3.05;;
68192;SDS011;55012;47.562;18.414;2023-04-25T03:33:45;6.47;;;3.70;;
68192;SDS011;55012;47.562;18.414;2023-04-25T03:36:11;5.35;;;3.45;;
68192;SDS011;55012;47.562;18.414;2023-04-25T03:38:36;4.93;;;3.65;;
68192;SDS011;55012;47.562;18.414;2023-04-25T03:41:02;4.68;;;3.25;;
68192;SDS011;55012;47.562;18.414;2023-04-25T03:43:28;6.90;;;3.63;;
68192;SDS011;55012;47.562;18.414;2023-04-25T03:45:53;5.97;;;4.00;;
68192;SDS011;55012;47.562;18.414;2023-04-25T03:48:19;17.33;;;3.97;;
68192;SDS011;55012;47.562;18.414;2023-04-25T03:50:49;5.75;;;4.00;;
68192;SDS011;55012;47.562;18.414;2023-04-25T03:53:15;6.03;;;3.63;;
68192;SDS011;55012;47.562;18.414;2023-04-25T03:55:40;6.90;;;3.78;;
68192;SDS011;55012;47.562;18.414;2023-04-25T03:58:06;7.03;;;4.07;;
68192;SDS011;55012;47.562;18.414;2023-04-25T04:00:33;6.85;;;4.35;;
68192;SDS011;55012;47.562;18.414;2023-04-25T04:02:58;8.98;;;4.65;;
68192;SDS011;55012;47.562;18.414;2023-04-25T04:05:24;6.47;;;4.30;;
68192;SDS011;55012;47.562;18.414;2023-04-25T04:07:49;8.70;;;4.32;;
68192;SDS011;55012;47.562;18.414;2023-04-25T04:10:15;6.43;;;4.22;;
68192;SDS011;55012;47.562;18.414;2023-04-25T04:12:40;6.78;;;4.30;;
68192;SDS011;55012;47.562;18.414;2023-04-25T04:15:06;6.80;;;4.15;;
68192;SDS011;55012;47.562;18.414;2023-04-25T04:17:32;8.65;;;4.80;;
68192;SDS011;55012;47.562;18.414;2023-04-25T04:19:58;8.02;;;4.70;;
68192;SDS011;55012;47.562;18.414;2023-04-25T04:22:23;6.32;;;4.20;;
68192;SDS011;55012;47.562;18.414;2023-04-25T04:24:49;7.65;;;4.45;;
68192;SDS011;55012;47.562;18.414;2023-04-25T04:27:17;9.07;;;4.82;;
68192;SDS011;55012;47.562;18.414;2023-04-25T04:29:43;8.20;;;4.88;;
68192;SDS011;55012;47.562;18.414;2023-04-25T04:32:09;8.15;;;4.85;;
68192;SDS011;55012;47.562;18.414;2023-04-25T04:34:34;7.70;;;4.70;;
68192;SDS011;55012;47.562;18.414;2023-04-25T04:37:00;8.80;;;4.85;;
68192;SDS011;55012;47.562;18.414;2023-04-25T04:39:25;8.20;;;5.10;;
68192;SDS011;55012;47.562;18.414;2023-04-25T04:41:51;8.48;;;5.35;;
68192;SDS011;55012;47.562;18.414;2023-04-25T04:44:16;8.75;;;5.38;;
68192;SDS011;55012;47.562;18.414;2023-04-25T04:46:42;8.88;;;5.18;;
68192;SDS011;55012;47.562;18.414;2023-04-25T04:49:11;9.50;;;5.07;;
68192;SDS011;55012;47.562;18.414;2023-04-25T04:51:37;8.10;;;5.05;;
68192;SDS011;55012;47.562;18.414;2023-04-25T04:54:03;9.90;;;5.60;;
68192;SDS011;55012;47.562;18.414;2023-04-25T04:56:29;8.48;;;5.35;;
68192;SDS011;55012;47.562;18.414;2023-04-25T04:58:58;8.85;;;5.13;;
68192;SDS011;55012;47.562;18.414;2023-04-25T05:01:24;8.32;;;4.95;;
68192;SDS011;55012;47.562;18.414;2023-04-25T05:03:50;8.30;;;5.10;;
68192;SDS011;55012;47.562;18.414;2023-04-25T05:06:16;7.47;;;4.20;;
68192;SDS011;55012;47.562;18.414;2023-04-25T05:08:43;8.60;;;5.68;;
68192;SDS011;55012;47.562;18.414;2023-04-25T05:11:08;7.45;;;4.80;;
68192;SDS011;55012;47.562;18.414;2023-04-25T05:13:34;10.68;;;5.07;;
68192;SDS011;55012;47.562;18.414;2023-04-25T05:15:59;7.75;;;4.70;;
68192;SDS011;55012;47.562;18.414;2023-04-25T05:18:25;7.65;;;4.80;;
68192;SDS011;55012;47.562;18.414;2023-04-25T05:20:50;6.60;;;4.43;;
68192;SDS011;55012;47.562;18.414;2023-04-25T05:23:16;9.10;;;4.90;;
68192;SDS011;55012;47.562;18.414;2023-04-25T05:25:41;9.02;;;4.60;;
68192;SDS011;55012;47.562;18.414;2023-04-25T05:28:07;9.27;;;4.88;;
68192;SDS011;55012;47.562;18.414;2023-04-25T05:30:33;7.72;;;4.57;;
68192;SDS011;55012;47.562;18.414;2023-04-25T05:32:59;11.25;;;4.45;;
68192;SDS011;55012;47.562;18.414;2023-04-25T05:35:25;6.95;;;4.45;;
68192;SDS011;55012;47.562;18.414;2023-04-25T05:37:51;6.97;;;4.30;;
68192;SDS011;55012;47.562;18.414;2023-04-25T05:40:16;6.93;;;4.45;;
68192;SDS011;55012;47.562;18.414;2023-04-25T05:42:42;7.55;;;4.22;;
68192;SDS011;55012;47.562;18.414;2023-04-25T05:45:07;8.13;;;4.35;;
68192;SDS011;55012;47.562;18.414;2023-04-25T05:47:33;6.78;;;4.10;;
68192;SDS011;55012;47.562;18.414;2023-04-25T05:49:59;7.32;;;4.07;;
68192;SDS011;55012;47.562;18.414;2023-04-25T05:52:24;8.15;;;4.32;;
68192;SDS011;55012;47.562;18.414;2023-04-25T05:54:50;6.97;;;4.55;;
68192;SDS011;55012;47.562;18.414;2023-04-25T05:57:20;8.18;;;4.63;;
68192;SDS011;55012;47.562;18.414;2023-04-25T05:59:50;8.05;;;4.90;;
68192;SDS011;55012;47.562;18.414;2023-04-25T06:02:16;8.00;;;4.90;;
68192;SDS011;55012;47.562;18.414;2023-04-25T06:04:42;8.75;;;4.85;;
68192;SDS011;55012;47.562;18.414;2023-04-25T06:07:08;9.02;;;5.15;;
68192;SDS011;55012;47.562;18.414;2023-04-25T06:09:33;9.43;;;5.43;;
68192;SDS011;55012;47.562;18.414;2023-04-25T06:11:59;9.77;;;6.20;;
68192;SDS011;55012;47.562;18.414;2023-04-25T06:14:26;9.65;;;5.25;;
68192;SDS011;55012;47.562;18.414;2023-04-25T06:16:51;10.80;;;5.50;;
68192;SDS011;55012;47.562;18.414;2023-04-25T06:19:17;9.43;;;5.90;;
68192;SDS011;55012;47.562;18.414;2023-04-25T06:21:43;10.30;;;5.20;;
68192;SDS011;55012;47.562;18.414;2023-04-25T06:24:09;9.93;;;5.30;;
68192;SDS011;55012;47.562;18.414;2023-04-25T06:26:34;8.52;;;5.20;;
68192;SDS011;55012;47.562;18.414;2023-04-25T06:29:00;8.00;;;5.03;;
68192;SDS011;55012;47.562;18.414;2023-04-25T06:31:25;8.07;;;4.68;;
68192;SDS011;55012;47.562;18.414;2023-04-25T06:33:51;7.72;;;4.00;;
68192;SDS011;55012;47.562;18.414;2023-04-25T06:36:19;7.97;;;4.70;;
68192;SDS011;55012;47.562;18.414;2023-04-25T06:38:50;8.40;;;4.53;;
68192;SDS011;55012;47.562;18.414;2023-04-25T06:41:17;9.00;;;4.40;;
68192;SDS011;55012;47.562;18.414;2023-04-25T06:43:43;9.70;;;4.38;;
68192;SDS011;55012;47.562;18.414;2023-04-25T06:46:08;8.20;;;4.15;;
68192;SDS011;55012;47.562;18.414;2023-04-25T06:48:33;7.70;;;4.53;;
68192;SDS011;55012;47.562;18.414;2023-04-25T06:50:59;7.15;;;4.15;;
68192;SDS011;55012;47.562;18.414;2023-04-25T06:53:24;6.97;;;4.30;;
68192;SDS011;55012;47.562;18.414;2023-04-25T06:55:50;6.97;;;3.70;;
68192;SDS011;55012;47.562;18.414;2023-04-25T06:58:15;8.98;;;4.47;;
68192;SDS011;55012;47.562;18.414;2023-04-25T07:00:41;7.50;;;4.57;;
68192;SDS011;55012;47.562;18.414;2023-04-25T07:03:07;7.18;;;4.55;;
68192;SDS011;55012;47.562;18.414;2023-04-25T07:05:32;7.05;;;4.15;;
68192;SDS011;55012;47.562;18.414;2023-04-25T07:07:57;7.35;;;4.40;;
68192;SDS011;55012;47.562;18.414;2023-04-25T07:10:23;9.48;;;5.07;;
68192;SDS011;55012;47.562;18.414;2023-04-25T07:12:48;7.80;;;4.22;;
68192;SDS011;55012;47.562;18.414;2023-04-25T07:15:14;7.22;;;4.38;;
68192;SDS011;55012;47.562;18.414;2023-04-25T07:17:40;12.20;;;5.25;;
68192;SDS011;55012;47.562;18.414;2023-04-25T07:20:05;8.73;;;4.72;;
68192;SDS011;55012;47.562;18.414;2023-04-25T07:22:32;9.07;;;5.90;;
68192;SDS011;55012;47.562;18.414;2023-04-25T07:24:58;8.60;;;4.93;;
68192;SDS011;55012;47.562;18.414;2023-04-25T07:27:23;8.50;;;4.95;;
68192;SDS011;55012;47.562;18.414;2023-04-25T07:29:49;7.75;;;4.32;;
68192;SDS011;55012;47.562;18.414;2023-04-25T07:32:14;8.48;;;4.72;;
68192;SDS011;55012;47.562;18.414;2023-04-25T07:34:41;7.10;;;4.25;;
68192;SDS011;55012;47.562;18.414;2023-04-25T07:37:07;8.18;;;4.32;;
68192;SDS011;55012;47.562;18.414;2023-04-25T07:39:32;7.93;;;4.70;;
68192;SDS011;55012;47.562;18.414;2023-04-25T07:41:58;6.35;;;4.30;;
68192;SDS011;55012;47.562;18.414;2023-04-25T07:44:24;6.88;;;4.20;;
68192;SDS011;55012;47.562;18.414;2023-04-25T07:46:50;6.70;;;4.05;;
68192;SDS011;55012;47.562;18.414;2023-04-25T07:49:16;6.15;;;3.92;;
68192;SDS011;55012;47.562;18.414;2023-04-25T07:51:41;5.65;;;3.90;;
68192;SDS011;55012;47.562;18.414;2023-04-25T07:54:09;6.95;;;4.32;;
68192;SDS011;55012;47.562;18.414;2023-04-25T07:56:34;5.30;;;3.75;;
68192;SDS011;55012;47.562;18.414;2023-04-25T07:59:00;6.45;;;4.25;;
68192;SDS011;55012;47.562;18.414;2023-04-25T08:01:26;6.03;;;4.40;;
68192;SDS011;55012;47.562;18.414;2023-04-25T08:03:52;8.88;;;4.40;;
68192;SDS011;55012;47.562;18.414;2023-04-25T08:06:18;9.63;;;4.43;;
68192;SDS011;55012;47.562;18.414;2023-04-25T08:08:43;8.63;;;4.30;;
68192;SDS011;55012;47.562;18.414;2023-04-25T08:11:09;7.80;;;4.60;;
68192;SDS011;55012;47.562;18.414;2023-04-25T08:13:35;6.38;;;4.05;;
68192;SDS011;55012;47.562;18.414;2023-04-25T08:16:01;5.78;;;4.18;;
68192;SDS011;55012;47.562;18.414;2023-04-25T08:18:26;7.00;;;4.80;;
68192;SDS011;55012;47.562;18.414;2023-04-25T08:20:52;7.63;;;4.40;;
68192;SDS011;55012;47.562;18.414;2023-04-25T08:23:17;7.38;;;4.00;;
68192;SDS011;55012;47.562;18.414;2023-04-25T08:25:42;6.30;;;4.35;;
68192;SDS011;55012;47.562;18.414;2023-04-25T08:28:08;8.23;;;4.93;;
68192;SDS011;55012;47.562;18.414;2023-04-25T08:30:34;8.50;;;4.72;;
68192;SDS011;55012;47.562;18.414;2023-04-25T08:33:01;6.65;;;4.40;;
68192;SDS011;55012;47.562;18.414;2023-04-25T08:35:27;7.35;;;4.57;;
68192;SDS011;55012;47.562;18.414;2023-04-25T08:37:53;5.70;;;4.28;;
68192;SDS011;55012;47.562;18.414;2023-04-25T08:40:19;5.97;;;4.25;;
68192;SDS011;55012;47.562;18.414;2023-04-25T08:42:51;6.07;;;4.38;;
68192;SDS011;55012;47.562;18.414;2023-04-25T08:45:18;7.40;;;4.22;;
68192;SDS011;55012;47.562;18.414;2023-04-25T08:47:43;7.82;;;4.60;;
68192;SDS011;55012;47.562;18.414;2023-04-25T08:50:11;6.95;;;4.55;;
68192;SDS011;55012;47.562;18.414;2023-04-25T08:52:38;6.03;;;4.32;;
68192;SDS011;55012;47.562;18.414;2023-04-25T08:55:08;4.82;;;3.67;;
68192;SDS011;55012;47.562;18.414;2023-04-25T08:57:35;6.82;;;4.40;;
68192;SDS011;55012;47.562;18.414;2023-04-25T09:00:02;5.88;;;4.20;;
68192;SDS011;55012;47.562;18.414;2023-04-25T09:02:28;5.68;;;3.90;;
68192;SDS011;55012;47.562;18.414;2023-04-25T09:04:54;4.88;;;3.60;;
68192;SDS011;55012;47.562;18.414;2023-04-25T09:07:21;5.40;;;3.42;;
68192;SDS011;55012;47.562;18.414;2023-04-25T09:09:47;5.78;;;4.00;;
68192;SDS011;55012;47.562;18.414;2023-04-25T09:12:12;4.82;;;3.45;;
68192;SDS011;55012;47.562;18.414;2023-04-25T09:14:38;6.05;;;4.13;;
68192;SDS011;55012;47.562;18.414;2023-04-25T09:17:04;5.32;;;3.53;;
68192;SDS011;55012;47.562;18.414;2023-04-25T09:19:34;6.13;;;3.67;;
68192;SDS011;55012;47.562;18.414;2023-04-25T09:22:02;4.97;;;3.72;;
68192;SDS011;55012;47.562;18.414;2023-04-25T09:24:30;5.82;;;3.50;;
68192;SDS011;55012;47.562;18.414;2023-04-25T09:27:08;6.82;;;3.67;;
68192;SDS011;55012;47.562;18.414;2023-04-25T09:29:35;4.43;;;3.27;;
68192;SDS011;55012;47.562;18.414;2023-04-25T09:34:41;4.65;;;3.53;;
68192;SDS011;55012;47.562;18.414;2023-04-25T09:37:11;5.47;;;3.70;;
68192;SDS011;55012;47.562;18.414;2023-04-25T09:39:42;5.23;;;3.93;;
68192;SDS011;55012;47.562;18.414;2023-04-25T09:42:09;5.90;;;3.65;;
68192;SDS011;55012;47.562;18.414;2023-04-25T09:44:35;7.03;;;4.00;;
68192;SDS011;55012;47.562;18.414;2023-04-25T09:47:01;5.50;;;3.90;;
68192;SDS011;55012;47.562;18.414;2023-04-25T09:49:27;11.50;;;5.32;;
68192;SDS011;55012;47.562;18.414;2023-04-25T09:51:56;5.47;;;3.45;;
68192;SDS011;55012;47.562;18.414;2023-04-25T09:54:26;5.95;;;4.18;;
68192;SDS011;55012;47.562;18.414;2023-04-25T09:56:52;5.40;;;3.92;;
68192;SDS011;55012;47.562;18.414;2023-04-25T09:59:21;6.07;;;4.40;;
68192;SDS011;55012;47.562;18.414;2023-04-25T10:01:50;6.78;;;4.45;;
68192;SDS011;55012;47.562;18.414;2023-04-25T10:04:20;6.20;;;4.35;;
68192;SDS011;55012;47.562;18.414;2023-04-25T10:06:51;5.45;;;4.10;;
68192;SDS011;55012;47.562;18.414;2023-04-25T10:09:21;5.05;;;3.80;;
68192;SDS011;55012;47.562;18.414;2023-04-25T10:11:50;6.03;;;4.30;;
68192;SDS011;55012;47.562;18.414;2023-04-25T10:14:16;6.75;;;4.15;;
68192;SDS011;55012;47.562;18.414;2023-04-25T10:16:42;4.65;;;3.55;;
68192;SDS011;55012;47.562;18.414;2023-04-25T10:19:08;6.07;;;4.47;;
68192;SDS011;55012;47.562;18.414;2023-04-25T10:21:44;5.22;;;4.13;;
68192;SDS011;55012;47.562;18.414;2023-04-25T10:24:15;5.85;;;4.40;;
68192;SDS011;55012;47.562;18.414;2023-04-25T10:26:40;4.93;;;3.60;;
68192;SDS011;55012;47.562;18.414;2023-04-25T10:29:06;4.63;;;3.75;;
68192;SDS011;55012;47.562;18.414;2023-04-25T10:31:32;5.97;;;4.38;;
68192;SDS011;55012;47.562;18.414;2023-04-25T10:33:59;5.50;;;3.88;;
68192;SDS011;55012;47.562;18.414;2023-04-25T10:36:26;8.52;;;4.20;;
68192;SDS011;55012;47.562;18.414;2023-04-25T10:38:56;7.03;;;4.22;;
68192;SDS011;55012;47.562;18.414;2023-04-25T10:41:27;4.90;;;3.70;;
68192;SDS011;55012;47.562;18.414;2023-04-25T10:44:00;7.88;;;4.65;;
68192;SDS011;55012;47.562;18.414;2023-04-25T10:46:28;5.13;;;4.13;;
68192;SDS011;55012;47.562;18.414;2023-04-25T10:48:57;5.70;;;4.30;;
68192;SDS011;55012;47.562;18.414;2023-04-25T10:51:28;4.93;;;3.78;;
68192;SDS011;55012;47.562;18.414;2023-04-25T10:54:03;5.20;;;3.75;;
68192;SDS011;55012;47.562;18.414;2023-04-25T10:56:35;3.63;;;2.78;;
68192;SDS011;55012;47.562;18.414;2023-04-25T10:59:11;4.82;;;3.55;;
68192;SDS011;55012;47.562;18.414;2023-04-25T11:01:44;4.45;;;3.30;;
68192;SDS011;55012;47.562;18.414;2023-04-25T11:04:30;5.03;;;3.65;;
68192;SDS011;55012;47.562;18.414;2023-04-25T11:09:35;4.45;;;3.13;;
68192;SDS011;55012;47.562;18.414;2023-04-25T11:12:03;4.40;;;3.30;;
68192;SDS011;55012;47.562;18.414;2023-04-25T11:14:30;5.07;;;3.72;;
68192;SDS011;55012;47.562;18.414;2023-04-25T11:16:59;4.15;;;3.10;;
68192;SDS011;55012;47.562;18.414;2023-04-25T11:19:27;5.03;;;3.90;;
68192;SDS011;55012;47.562;18.414;2023-04-25T11:21:57;4.90;;;3.72;;
68192;SDS011;55012;47.562;18.414;2023-04-25T11:24:30;4.68;;;3.55;;
68192;SDS011;55012;47.562;18.414;2023-04-25T11:27:00;4.75;;;3.38;;
68192;SDS011;55012;47.562;18.414;2023-04-25T11:29:28;5.55;;;3.42;;
68192;SDS011;55012;47.562;18.414;2023-04-25T11:31:57;4.22;;;3.25;;
68192;SDS011;55012;47.562;18.414;2023-04-25T11:34:23;4.65;;;3.60;;
68192;SDS011;55012;47.562;18.414;2023-04-25T11:36:50;4.70;;;3.67;;
68192;SDS011;55012;47.562;18.414;2023-04-25T11:39:17;4.68;;;3.60;;
68192;SDS011;55012;47.562;18.414;2023-04-25T11:41:43;4.95;;;3.55;;
68192;SDS011;55012;47.562;18.414;2023-04-25T11:44:08;6.18;;;4.20;;
68192;SDS011;55012;47.562;18.414;2023-04-25T11:46:34;5.63;;;4.13;;
68192;SDS011;55012;47.562;18.414;2023-04-25T11:49:00;5.88;;;3.60;;
68192;SDS011;55012;47.562;18.414;2023-04-25T11:51:25;5.10;;;3.40;;
68192;SDS011;55012;47.562;18.414;2023-04-25T11:53:51;5.90;;;3.50;;
68192;SDS011;55012;47.562;18.414;2023-04-25T11:56:17;4.07;;;3.05;;
68192;SDS011;55012;47.562;18.414;2023-04-25T12:01:27;5.75;;;3.22;;
68192;SDS011;55012;47.562;18.414;2023-04-25T12:03:54;5.15;;;2.97;;
68192;SDS011;55012;47.562;18.414;2023-04-25T12:06:19;3.47;;;2.70;;
68192;SDS011;55012;47.562;18.414;2023-04-25T12:09:01;6.28;;;3.47;;
68192;SDS011;55012;47.562;18.414;2023-04-25T12:11:29;4.57;;;3.10;;
68192;SDS011;55012;47.562;18.414;2023-04-25T12:14:01;4.78;;;3.33;;
68192;SDS011;55012;47.562;18.414;2023-04-25T12:16:42;3.78;;;2.88;;
68192;SDS011;55012;47.562;18.414;2023-04-25T12:19:08;4.55;;;3.05;;
68192;SDS011;55012;47.562;18.414;2023-04-25T12:21:35;4.10;;;3.00;;
68192;SDS011;55012;47.562;18.414;2023-04-25T12:24:14;4.88;;;3.70;;
68192;SDS011;55012;47.562;18.414;2023-04-25T12:26:47;4.97;;;3.53;;
68192;SDS011;55012;47.562;18.414;2023-04-25T12:29:25;3.28;;;2.85;;
68192;SDS011;55012;47.562;18.414;2023-04-25T12:31:52;9.45;;;3.28;;
68192;SDS011;55012;47.562;18.414;2023-04-25T12:34:19;4.53;;;3.10;;
68192;SDS011;55012;47.562;18.414;2023-04-25T12:36:45;6.05;;;3.50;;
68192;SDS011;55012;47.562;18.414;2023-04-25T12:39:17;4.00;;;2.97;;
68192;SDS011;55012;47.562;18.414;2023-04-25T12:41:47;5.50;;;3.65;;
68192;SDS011;55012;47.562;18.414;2023-04-25T12:44:14;6.10;;;4.05;;
68192;SDS011;55012;47.562;18.414;2023-04-25T12:46:40;5.50;;;3.88;;
68192;SDS011;55012;47.562;18.414;2023-04-25T12:49:06;7.55;;;4.28;;
68192;SDS011;55012;47.562;18.414;2023-04-25T12:51:33;5.05;;;3.80;;
68192;SDS011;55012;47.562;18.414;2023-04-25T12:54:00;5.57;;;4.07;;
68192;SDS011;55012;47.562;18.414;2023-04-25T12:56:26;5.68;;;3.60;;
68192;SDS011;55012;47.562;18.414;2023-04-25T12:58:52;5.05;;;3.97;;
68192;SDS011;55012;47.562;18.414;2023-04-25T13:01:18;4.97;;;3.60;;
68192;SDS011;55012;47.562;18.414;2023-04-25T13:03:45;4.88;;;3.38;;
68192;SDS011;55012;47.562;18.414;2023-04-25T13:06:11;5.18;;;3.85;;
68192;SDS011;55012;47.562;18.414;2023-04-25T13:08:37;6.43;;;4.00;;
68192;SDS011;55012;47.562;18.414;2023-04-25T13:11:04;6.78;;;3.90;;
68192;SDS011;55012;47.562;18.414;2023-04-25T13:13:30;5.85;;;3.88;;
68192;SDS011;55012;47.562;18.414;2023-04-25T13:15:56;5.75;;;4.32;;
68192;SDS011;55012;47.562;18.414;2023-04-25T13:18:22;7.03;;;4.30;;
68192;SDS011;55012;47.562;18.414;2023-04-25T13:20:51;6.30;;;4.10;;
68192;SDS011;55012;47.562;18.414;2023-04-25T13:23:18;6.03;;;4.38;;
68192;SDS011;55012;47.562;18.414;2023-04-25T13:25:43;7.68;;;4.05;;
68192;SDS011;55012;47.562;18.414;2023-04-25T13:28:09;5.65;;;3.72;;
68192;SDS011;55012;47.562;18.414;2023-04-25T13:30:34;5.85;;;4.22;;
68192;SDS011;55012;47.562;18.414;2023-04-25T13:33:00;5.82;;;3.92;;
68192;SDS011;55012;47.562;18.414;2023-04-25T13:35:28;6.80;;;4.20;;
68192;SDS011;55012;47.562;18.414;2023-04-25T13:37:54;5.38;;;3.90;;
68192;SDS011;55012;47.562;18.414;2023-04-25T13:40:20;6.05;;;4.10;;
68192;SDS011;55012;47.562;18.414;2023-04-25T13:42:46;5.72;;;4.30;;
68192;SDS011;55012;47.562;18.414;2023-04-25T13:45:11;6.30;;;4.30;;
68192;SDS011;55012;47.562;18.414;2023-04-25T13:47:37;6.07;;;4.28;;
68192;SDS011;55012;47.562;18.414;2023-04-25T13:50:03;5.32;;;3.78;;
68192;SDS011;55012;47.562;18.414;2023-04-25T13:52:30;6.30;;;4.15;;
68192;SDS011;55012;47.562;18.414;2023-04-25T13:54:56;6.30;;;3.90;;
68192;SDS011;55012;47.562;18.414;2023-04-25T13:57:22;5.28;;;3.60;;
68192;SDS011;55012;47.562;18.414;2023-04-25T13:59:48;4.80;;;2.72;;
68192;SDS011;55012;47.562;18.414;2023-04-25T14:02:14;5.10;;;2.83;;
68192;SDS011;55012;47.562;18.414;2023-04-25T14:04:40;4.85;;;2.90;;
68192;SDS011;55012;47.562;18.414;2023-04-25T14:07:05;3.50;;;2.85;;
68192;SDS011;55012;47.562;18.414;2023-04-25T14:09:31;4.57;;;3.30;;
68192;SDS011;55012;47.562;18.414;2023-04-25T14:11:57;4.85;;;3.38;;
68192;SDS011;55012;47.562;18.414;2023-04-25T14:14:22;5.35;;;3.22;;
68192;SDS011;55012;47.562;18.414;2023-04-25T14:16:49;5.60;;;3.47;;
68192;SDS011;55012;47.562;18.414;2023-04-25T14:19:15;4.70;;;3.60;;
68192;SDS011;55012;47.562;18.414;2023-04-25T14:21:41;6.50;;;3.85;;
68192;SDS011;55012;47.562;18.414;2023-04-25T14:24:08;4.95;;;3.75;;
68192;SDS011;55012;47.562;18.414;2023-04-25T14:26:34;6.13;;;3.70;;
68192;SDS011;55012;47.562;18.414;2023-04-25T14:29:00;6.45;;;4.03;;
68192;SDS011;55012;47.562;18.414;2023-04-25T14:31:26;7.45;;;4.30;;
68192;SDS011;55012;47.562;18.414;2023-04-25T14:33:52;6.82;;;4.18;;
68192;SDS011;55012;47.562;18.414;2023-04-25T14:36:18;5.75;;;4.13;;
68192;SDS011;55012;47.562;18.414;2023-04-25T14:38:43;7.82;;;5.10;;